sensor_id;sensor_type;location;lat;lon;timestamp;P1;durP1;ratioP1;P2;durP2;ratioP2
1699;SDS011;847;48.058;7.810;2023-04-03T00:00:44;4.60;;;3.50;;
1699;SDS011;847;48.058;7.810;2023-04-03T00:05:50;4.37;;;3.97;;
1699;SDS011;847;48.058;7.810;2023-04-03T00:10:53;4.07;;;3.67;;
1699;SDS011;847;48.058;7.810;2023-04-03T00:13:39;4.10;;;3.23;;
1699;SDS011;847;48.058;7.810;2023-04-03T00:18:59;5.47;;;3.67;;
1699;SDS011;847;48.058;7.810;2023-04-03T00:24:11;4.27;;;3.87;;
1699;SDS011;847;48.058;7.810;2023-04-03T00:26:38;3.90;;;3.50;;
1699;SDS011;847;48.058;7.810;2023-04-03T00:29:07;3.90;;;3.53;;
1699;SDS011;847;48.058;7.810;2023-04-03T00:31:36;4.13;;;3.73;;
1699;SDS011;847;48.058;7.810;2023-04-03T00:34:09;3.87;;;3.53;;
1699;SDS011;847;48.058;7.810;2023-04-03T00:36:40;3.60;;;3.30;;
1699;SDS011;847;48.058;7.810;2023-04-03T00:39:13;6.83;;;3.97;;
1699;SDS011;847;48.058;7.810;2023-04-03T00:41:40;3.67;;;3.30;;
1699;SDS011;847;48.058;7.810;2023-04-03T00:44:22;4.80;;;3.90;;
1699;SDS011;847;48.058;7.810;2023-04-03T00:47:13;4.50;;;3.67;;
1699;SDS011;847;48.058;7.810;2023-04-03T00:49:44;3.93;;;3.63;;
1699;SDS011;847;48.058;7.810;2023-04-03T00:52:14;3.73;;;3.40;;
1699;SDS011;847;48.058;7.810;2023-04-03T00:54:50;3.67;;;3.30;;
1699;SDS011;847;48.058;7.810;2023-04-03T00:57:21;4.13;;;3.17;;
1699;SDS011;847;48.058;7.810;2023-04-03T00:59:51;3.30;;;3.00;;
1699;SDS011;847;48.058;7.810;2023-04-03T01:02:32;3.97;;;3.50;;
1699;SDS011;847;48.058;7.810;2023-04-03T01:05:01;4.40;;;3.93;;
1699;SDS011;847;48.058;7.810;2023-04-03T01:07:35;3.70;;;3.20;;
1699;SDS011;847;48.058;7.810;2023-04-03T01:10:04;7.90;;;3.50;;
1699;SDS011;847;48.058;7.810;2023-04-03T01:12:34;3.90;;;3.50;;
1699;SDS011;847;48.058;7.810;2023-04-03T01:20:29;4.90;;;3.47;;
1699;SDS011;847;48.058;7.810;2023-04-03T01:23:34;4.00;;;2.80;;
1699;SDS011;847;48.058;7.810;2023-04-03T01:34:13;4.70;;;3.40;;
1699;SDS011;847;48.058;7.810;2023-04-03T01:36:40;3.30;;;3.00;;
1699;SDS011;847;48.058;7.810;2023-04-03T01:39:08;3.50;;;2.80;;
1699;SDS011;847;48.058;7.810;2023-04-03T01:41:35;3.43;;;2.83;;
1699;SDS011;847;48.058;7.810;2023-04-03T01:49:17;3.77;;;3.23;;
1699;SDS011;847;48.058;7.810;2023-04-03T01:57:08;2.77;;;2.50;;
1699;SDS011;847;48.058;7.810;2023-04-03T01:59:35;3.60;;;3.00;;
1699;SDS011;847;48.058;7.810;2023-04-03T02:02:02;3.83;;;3.17;;
1699;SDS011;847;48.058;7.810;2023-04-03T02:30:46;3.23;;;2.93;;
1699;SDS011;847;48.058;7.810;2023-04-03T02:33:39;4.30;;;3.23;;
1699;SDS011;847;48.058;7.810;2023-04-03T02:36:38;4.13;;;2.40;;
1699;SDS011;847;48.058;7.810;2023-04-03T02:44:20;3.63;;;3.33;;
1699;SDS011;847;48.058;7.810;2023-04-03T02:46:49;3.63;;;3.20;;
1699;SDS011;847;48.058;7.810;2023-04-03T02:49:19;5.20;;;3.10;;
1699;SDS011;847;48.058;7.810;2023-04-03T02:51:46;3.70;;;3.27;;
1699;SDS011;847;48.058;7.810;2023-04-03T02:56:53;4.70;;;3.60;;
1699;SDS011;847;48.058;7.810;2023-04-03T02:59:20;4.33;;;3.80;;
1699;SDS011;847;48.058;7.810;2023-04-03T03:01:50;3.90;;;2.73;;
1699;SDS011;847;48.058;7.810;2023-04-03T03:04:17;4.00;;;3.67;;
1699;SDS011;847;48.058;7.810;2023-04-03T03:06:49;3.43;;;3.10;;
1699;SDS011;847;48.058;7.810;2023-04-03T03:09:23;3.60;;;3.20;;
1699;SDS011;847;48.058;7.810;2023-04-03T03:12:06;3.40;;;3.07;;
1699;SDS011;847;48.058;7.810;2023-04-03T03:14:47;3.87;;;3.57;;
1699;SDS011;847;48.058;7.810;2023-04-03T03:17:22;2.97;;;2.73;;
1699;SDS011;847;48.058;7.810;2023-04-03T03:19:51;3.20;;;2.60;;
1699;SDS011;847;48.058;7.810;2023-04-03T03:22:18;3.80;;;3.27;;
1699;SDS011;847;48.058;7.810;2023-04-03T03:24:45;3.00;;;2.80;;
1699;SDS011;847;48.058;7.810;2023-04-03T03:27:12;4.53;;;4.13;;
1699;SDS011;847;48.058;7.810;2023-04-03T03:29:42;3.30;;;3.00;;
1699;SDS011;847;48.058;7.810;2023-04-03T03:32:10;4.27;;;2.87;;
1699;SDS011;847;48.058;7.810;2023-04-03T03:38:41;3.70;;;3.30;;
1699;SDS011;847;48.058;7.810;2023-04-03T03:41:18;3.47;;;3.00;;
1699;SDS011;847;48.058;7.810;2023-04-03T03:43:50;3.03;;;2.73;;
1699;SDS011;847;48.058;7.810;2023-04-03T03:49:22;2.80;;;2.57;;
1699;SDS011;847;48.058;7.810;2023-04-03T03:51:49;3.63;;;3.17;;
1699;SDS011;847;48.058;7.810;2023-04-03T03:54:27;2.47;;;2.27;;
1699;SDS011;847;48.058;7.810;2023-04-03T03:57:02;3.30;;;3.00;;
1699;SDS011;847;48.058;7.810;2023-04-03T03:59:30;3.70;;;2.87;;
1699;SDS011;847;48.058;7.810;2023-04-03T04:02:11;2.70;;;2.47;;
1699;SDS011;847;48.058;7.810;2023-04-03T04:04:45;3.17;;;2.47;;
1699;SDS011;847;48.058;7.810;2023-04-03T04:07:17;2.93;;;2.73;;
1699;SDS011;847;48.058;7.810;2023-04-03T04:09:59;2.90;;;2.70;;
1699;SDS011;847;48.058;7.810;2023-04-03T04:15:23;3.27;;;2.90;;
1699;SDS011;847;48.058;7.810;2023-04-03T04:20:27;4.03;;;2.90;;
1699;SDS011;847;48.058;7.810;2023-04-03T04:22:54;3.07;;;2.70;;
1699;SDS011;847;48.058;7.810;2023-04-03T04:25:22;4.10;;;3.00;;
1699;SDS011;847;48.058;7.810;2023-04-03T04:27:49;3.40;;;3.10;;
1699;SDS011;847;48.058;7.810;2023-04-03T04:30:18;3.30;;;2.60;;
1699;SDS011;847;48.058;7.810;2023-04-03T04:32:49;2.80;;;2.60;;
1699;SDS011;847;48.058;7.810;2023-04-03T04:35:16;3.53;;;3.23;;
1699;SDS011;847;48.058;7.810;2023-04-03T04:46:14;3.77;;;3.43;;
1699;SDS011;847;48.058;7.810;2023-04-03T04:48:42;3.77;;;3.30;;
1699;SDS011;847;48.058;7.810;2023-04-03T04:51:12;4.17;;;3.80;;
1699;SDS011;847;48.058;7.810;2023-04-03T04:53:39;4.00;;;3.60;;
1699;SDS011;847;48.058;7.810;2023-04-03T04:56:22;5.27;;;3.90;;
1699;SDS011;847;48.058;7.810;2023-04-03T04:58:54;4.27;;;3.87;;
1699;SDS011;847;48.058;7.810;2023-04-03T05:01:27;6.00;;;3.90;;
1699;SDS011;847;48.058;7.810;2023-04-03T05:04:02;4.10;;;3.70;;
1699;SDS011;847;48.058;7.810;2023-04-03T05:06:38;4.00;;;3.70;;
1699;SDS011;847;48.058;7.810;2023-04-03T05:09:07;3.67;;;3.33;;
1699;SDS011;847;48.058;7.810;2023-04-03T05:11:41;5.30;;;3.70;;
1699;SDS011;847;48.058;7.810;2023-04-03T05:14:13;4.07;;;3.73;;
1699;SDS011;847;48.058;7.810;2023-04-03T05:16:43;4.30;;;3.90;;
1699;SDS011;847;48.058;7.810;2023-04-03T05:19:20;4.33;;;3.93;;
1699;SDS011;847;48.058;7.810;2023-04-03T05:21:51;4.77;;;3.57;;
1699;SDS011;847;48.058;7.810;2023-04-03T05:24:19;4.03;;;3.50;;
1699;SDS011;847;48.058;7.810;2023-04-03T05:26:46;3.83;;;3.43;;
1699;SDS011;847;48.058;7.810;2023-04-03T05:29:14;5.33;;;4.30;;
1699;SDS011;847;48.058;7.810;2023-04-03T05:31:44;4.73;;;3.70;;
1699;SDS011;847;48.058;7.810;2023-04-03T05:34:13;4.27;;;3.70;;
1699;SDS011;847;48.058;7.810;2023-04-03T05:39:19;4.70;;;4.00;;
1699;SDS011;847;48.058;7.810;2023-04-03T05:41:46;4.33;;;3.93;;
1699;SDS011;847;48.058;7.810;2023-04-03T05:44:13;4.07;;;3.67;;
1699;SDS011;847;48.058;7.810;2023-04-03T05:46:39;4.00;;;3.70;;
1699;SDS011;847;48.058;7.810;2023-04-03T05:49:13;5.20;;;4.70;;
1699;SDS011;847;48.058;7.810;2023-04-03T05:51:40;6.63;;;5.17;;
1699;SDS011;847;48.058;7.810;2023-04-03T05:54:10;4.10;;;3.70;;
1699;SDS011;847;48.058;7.810;2023-04-03T05:56:43;4.00;;;3.60;;
1699;SDS011;847;48.058;7.810;2023-04-03T06:01:46;4.40;;;3.47;;
1699;SDS011;847;48.058;7.810;2023-04-03T06:04:15;5.00;;;3.73;;
1699;SDS011;847;48.058;7.810;2023-04-03T06:06:42;4.23;;;3.90;;
1699;SDS011;847;48.058;7.810;2023-04-03T06:09:11;4.83;;;4.00;;
1699;SDS011;847;48.058;7.810;2023-04-03T06:11:50;3.27;;;2.97;;
1699;SDS011;847;48.058;7.810;2023-04-03T06:14:18;5.07;;;4.60;;
1699;SDS011;847;48.058;7.810;2023-04-03T06:16:50;4.93;;;4.40;;
1699;SDS011;847;48.058;7.810;2023-04-03T06:19:19;3.90;;;3.60;;
1699;SDS011;847;48.058;7.810;2023-04-03T06:21:46;3.87;;;3.57;;
1699;SDS011;847;48.058;7.810;2023-04-03T06:24:14;4.40;;;4.00;;
1699;SDS011;847;48.058;7.810;2023-04-03T06:26:42;4.50;;;3.80;;
1699;SDS011;847;48.058;7.810;2023-04-03T06:31:47;6.63;;;3.73;;
1699;SDS011;847;48.058;7.810;2023-04-03T06:34:14;3.90;;;3.50;;
1699;SDS011;847;48.058;7.810;2023-04-03T06:36:43;4.00;;;3.60;;
1699;SDS011;847;48.058;7.810;2023-04-03T06:39:11;4.63;;;3.63;;
1699;SDS011;847;48.058;7.810;2023-04-03T06:41:40;5.30;;;4.07;;
1699;SDS011;847;48.058;7.810;2023-04-03T06:44:07;4.10;;;3.80;;
1699;SDS011;847;48.058;7.810;2023-04-03T06:46:42;3.97;;;3.63;;
1699;SDS011;847;48.058;7.810;2023-04-03T06:49:10;4.83;;;4.43;;
1699;SDS011;847;48.058;7.810;2023-04-03T06:51:41;5.20;;;3.80;;
1699;SDS011;847;48.058;7.810;2023-04-03T06:54:09;4.07;;;3.77;;
1699;SDS011;847;48.058;7.810;2023-04-03T06:56:36;3.43;;;3.03;;
1699;SDS011;847;48.058;7.810;2023-04-03T06:59:03;4.13;;;3.60;;
1699;SDS011;847;48.058;7.810;2023-04-03T07:01:30;3.50;;;3.20;;
1699;SDS011;847;48.058;7.810;2023-04-03T07:03:57;3.40;;;2.90;;
1699;SDS011;847;48.058;7.810;2023-04-03T07:06:24;3.43;;;2.70;;
1699;SDS011;847;48.058;7.810;2023-04-03T07:08:54;3.50;;;3.20;;
1699;SDS011;847;48.058;7.810;2023-04-03T07:11:21;3.77;;;3.47;;
1699;SDS011;847;48.058;7.810;2023-04-03T07:13:48;3.90;;;3.00;;
1699;SDS011;847;48.058;7.810;2023-04-03T07:16:16;3.60;;;3.30;;
1699;SDS011;847;48.058;7.810;2023-04-03T07:18:42;3.23;;;2.93;;
1699;SDS011;847;48.058;7.810;2023-04-03T07:21:10;4.40;;;3.27;;
1699;SDS011;847;48.058;7.810;2023-04-03T07:23:36;2.63;;;2.43;;
1699;SDS011;847;48.058;7.810;2023-04-03T07:26:05;2.70;;;2.50;;
1699;SDS011;847;48.058;7.810;2023-04-03T07:28:33;3.40;;;3.07;;
1699;SDS011;847;48.058;7.810;2023-04-03T07:31:01;3.50;;;3.00;;
1699;SDS011;847;48.058;7.810;2023-04-03T07:33:30;3.17;;;2.87;;
1699;SDS011;847;48.058;7.810;2023-04-03T07:35:57;4.90;;;2.80;;
1699;SDS011;847;48.058;7.810;2023-04-03T07:38:25;3.70;;;2.67;;
1699;SDS011;847;48.058;7.810;2023-04-03T07:40:52;2.97;;;2.67;;
1699;SDS011;847;48.058;7.810;2023-04-03T07:43:21;2.60;;;2.10;;
1699;SDS011;847;48.058;7.810;2023-04-03T07:45:50;3.73;;;3.50;;
1699;SDS011;847;48.058;7.810;2023-04-03T07:48:17;2.63;;;2.43;;
1699;SDS011;847;48.058;7.810;2023-04-03T07:50:44;2.60;;;2.40;;
1699;SDS011;847;48.058;7.810;2023-04-03T07:53:14;2.40;;;2.20;;
1699;SDS011;847;48.058;7.810;2023-04-03T07:55:41;3.13;;;2.83;;
1699;SDS011;847;48.058;7.810;2023-04-03T07:58:09;3.00;;;2.80;;
1699;SDS011;847;48.058;7.810;2023-04-03T08:00:38;2.80;;;2.60;;
1699;SDS011;847;48.058;7.810;2023-04-03T08:03:06;3.23;;;3.03;;
1699;SDS011;847;48.058;7.810;2023-04-03T08:05:36;2.90;;;2.70;;
1699;SDS011;847;48.058;7.810;2023-04-03T08:08:04;2.87;;;2.37;;
1699;SDS011;847;48.058;7.810;2023-04-03T08:10:32;3.00;;;2.70;;
1699;SDS011;847;48.058;7.810;2023-04-03T08:13:00;2.90;;;2.60;;
1699;SDS011;847;48.058;7.810;2023-04-03T08:15:27;3.33;;;3.03;;
1699;SDS011;847;48.058;7.810;2023-04-03T08:17:57;2.80;;;2.60;;
1699;SDS011;847;48.058;7.810;2023-04-03T08:20:26;3.10;;;2.80;;
1699;SDS011;847;48.058;7.810;2023-04-03T08:22:53;2.57;;;2.30;;
1699;SDS011;847;48.058;7.810;2023-04-03T08:25:26;3.87;;;3.47;;
1699;SDS011;847;48.058;7.810;2023-04-03T08:27:55;3.50;;;2.73;;
1699;SDS011;847;48.058;7.810;2023-04-03T08:30:22;3.27;;;2.67;;
1699;SDS011;847;48.058;7.810;2023-04-03T08:32:50;4.30;;;3.10;;
1699;SDS011;847;48.058;7.810;2023-04-03T08:35:18;3.73;;;3.03;;
1699;SDS011;847;48.058;7.810;2023-04-03T08:37:45;3.50;;;3.20;;
1699;SDS011;847;48.058;7.810;2023-04-03T08:40:15;2.90;;;2.70;;
1699;SDS011;847;48.058;7.810;2023-04-03T08:42:45;3.10;;;2.90;;
1699;SDS011;847;48.058;7.810;2023-04-03T08:45:21;5.13;;;3.70;;
1699;SDS011;847;48.058;7.810;2023-04-03T09:06:10;3.97;;;3.60;;
1699;SDS011;847;48.058;7.810;2023-04-03T10:36:27;2.00;;;1.83;;
1699;SDS011;847;48.058;7.810;2023-04-03T13:51:45;2.23;;;2.03;;
1699;SDS011;847;48.058;7.810;2023-04-03T13:54:16;2.33;;;2.13;;
1699;SDS011;847;48.058;7.810;2023-04-03T13:56:46;2.70;;;2.47;;
1699;SDS011;847;48.058;7.810;2023-04-03T13:59:20;3.43;;;2.27;;
1699;SDS011;847;48.058;7.810;2023-04-03T14:07:08;2.70;;;2.10;;
1699;SDS011;847;48.058;7.810;2023-04-03T14:22:31;5.10;;;2.80;;
1699;SDS011;847;48.058;7.810;2023-04-03T14:32:46;2.37;;;2.17;;
1699;SDS011;847;48.058;7.810;2023-04-03T16:29:50;2.55;;;2.05;;
1699;SDS011;847;48.058;7.810;2023-04-03T16:32:19;2.43;;;2.23;;
1699;SDS011;847;48.058;7.810;2023-04-03T16:34:46;3.17;;;2.20;;
1699;SDS011;847;48.058;7.810;2023-04-03T16:39:49;2.43;;;1.83;;
1699;SDS011;847;48.058;7.810;2023-04-03T16:42:16;2.20;;;2.00;;
1699;SDS011;847;48.058;7.810;2023-04-03T16:47:20;4.27;;;2.50;;
1699;SDS011;847;48.058;7.810;2023-04-03T16:49:49;3.57;;;2.17;;
1699;SDS011;847;48.058;7.810;2023-04-03T17:25:57;3.43;;;2.13;;
1699;SDS011;847;48.058;7.810;2023-04-03T17:28:24;2.77;;;2.07;;
1699;SDS011;847;48.058;7.810;2023-04-03T17:30:52;1.90;;;1.80;;
1699;SDS011;847;48.058;7.810;2023-04-03T17:33:20;2.97;;;2.33;;
1699;SDS011;847;48.058;7.810;2023-04-03T17:41:14;3.00;;;2.63;;
1699;SDS011;847;48.058;7.810;2023-04-03T17:43:41;2.50;;;1.83;;
1699;SDS011;847;48.058;7.810;2023-04-03T17:54:10;3.37;;;3.07;;
1699;SDS011;847;48.058;7.810;2023-04-03T17:56:38;3.53;;;2.30;;
1699;SDS011;847;48.058;7.810;2023-04-03T18:02:04;2.60;;;2.20;;
1699;SDS011;847;48.058;7.810;2023-04-03T18:04:34;2.83;;;2.30;;
1699;SDS011;847;48.058;7.810;2023-04-03T18:07:01;2.53;;;2.33;;
1699;SDS011;847;48.058;7.810;2023-04-03T18:12:08;3.73;;;2.20;;
1699;SDS011;847;48.058;7.810;2023-04-03T19:07:01;9.03;;;2.50;;
1699;SDS011;847;48.058;7.810;2023-04-03T19:09:30;3.00;;;2.63;;
1699;SDS011;847;48.058;7.810;2023-04-03T19:12:02;3.07;;;2.17;;
1699;SDS011;847;48.058;7.810;2023-04-03T19:17:17;4.63;;;2.60;;
1699;SDS011;847;48.058;7.810;2023-04-03T19:20:21;2.50;;;2.30;;
1699;SDS011;847;48.058;7.810;2023-04-03T19:22:59;3.30;;;1.93;;
1699;SDS011;847;48.058;7.810;2023-04-03T19:25:32;2.87;;;2.20;;
1699;SDS011;847;48.058;7.810;2023-04-03T19:28:02;2.57;;;2.37;;
1699;SDS011;847;48.058;7.810;2023-04-03T19:30:29;2.73;;;2.50;;
1699;SDS011;847;48.058;7.810;2023-04-03T19:33:03;2.83;;;2.37;;
1699;SDS011;847;48.058;7.810;2023-04-03T19:35:38;2.27;;;2.07;;
1699;SDS011;847;48.058;7.810;2023-04-03T19:40:44;3.30;;;1.90;;
1699;SDS011;847;48.058;7.810;2023-04-03T19:43:22;2.93;;;2.03;;
1699;SDS011;847;48.058;7.810;2023-04-03T19:45:49;2.70;;;2.20;;
1699;SDS011;847;48.058;7.810;2023-04-03T19:48:28;2.20;;;2.00;;
1699;SDS011;847;48.058;7.810;2023-04-03T19:51:08;3.10;;;2.10;;
1699;SDS011;847;48.058;7.810;2023-04-03T19:53:55;3.10;;;2.10;;
1699;SDS011;847;48.058;7.810;2023-04-03T19:56:25;2.77;;;2.50;;
1699;SDS011;847;48.058;7.810;2023-04-03T19:58:52;3.13;;;2.83;;
1699;SDS011;847;48.058;7.810;2023-04-03T20:01:21;3.20;;;2.40;;
1699;SDS011;847;48.058;7.810;2023-04-03T20:03:51;3.67;;;2.63;;
1699;SDS011;847;48.058;7.810;2023-04-03T20:06:18;2.33;;;1.90;;
1699;SDS011;847;48.058;7.810;2023-04-03T20:08:47;3.63;;;2.73;;
1699;SDS011;847;48.058;7.810;2023-04-03T20:11:17;3.40;;;1.80;;
1699;SDS011;847;48.058;7.810;2023-04-03T20:13:49;3.10;;;2.47;;
1699;SDS011;847;48.058;7.810;2023-04-03T20:16:17;4.30;;;3.90;;
1699;SDS011;847;48.058;7.810;2023-04-03T20:18:49;3.50;;;2.33;;
1699;SDS011;847;48.058;7.810;2023-04-03T20:21:19;2.83;;;2.20;;
1699;SDS011;847;48.058;7.810;2023-04-03T20:23:46;2.93;;;2.60;;
1699;SDS011;847;48.058;7.810;2023-04-03T20:26:17;4.10;;;3.20;;
1699;SDS011;847;48.058;7.810;2023-04-03T20:28:49;3.40;;;2.53;;
1699;SDS011;847;48.058;7.810;2023-04-03T20:31:19;2.63;;;2.37;;
1699;SDS011;847;48.058;7.810;2023-04-03T20:33:46;2.93;;;2.30;;
1699;SDS011;847;48.058;7.810;2023-04-03T20:36:14;3.63;;;2.80;;
1699;SDS011;847;48.058;7.810;2023-04-03T20:38:42;3.60;;;2.50;;
1699;SDS011;847;48.058;7.810;2023-04-03T20:41:10;4.60;;;2.30;;
1699;SDS011;847;48.058;7.810;2023-04-03T20:43:38;3.43;;;2.20;;
1699;SDS011;847;48.058;7.810;2023-04-03T20:46:08;3.20;;;2.60;;
1699;SDS011;847;48.058;7.810;2023-04-03T20:48:38;3.60;;;2.40;;
1699;SDS011;847;48.058;7.810;2023-04-03T20:51:08;3.80;;;2.00;;
1699;SDS011;847;48.058;7.810;2023-04-03T20:53:36;3.07;;;2.77;;
1699;SDS011;847;48.058;7.810;2023-04-03T20:56:04;3.57;;;3.00;;
1699;SDS011;847;48.058;7.810;2023-04-03T20:58:33;4.23;;;2.40;;
1699;SDS011;847;48.058;7.810;2023-04-03T21:01:07;3.43;;;2.13;;
1699;SDS011;847;48.058;7.810;2023-04-03T21:03:40;3.33;;;2.90;;
1699;SDS011;847;48.058;7.810;2023-04-03T21:21:18;3.30;;;2.00;;
1699;SDS011;847;48.058;7.810;2023-04-03T21:23:46;2.60;;;1.90;;
1699;SDS011;847;48.058;7.810;2023-04-03T21:26:14;5.30;;;2.63;;
1699;SDS011;847;48.058;7.810;2023-04-03T21:28:41;2.53;;;2.33;;
1699;SDS011;847;48.058;7.810;2023-04-03T21:31:08;4.53;;;3.00;;
1699;SDS011;847;48.058;7.810;2023-04-03T21:33:37;2.50;;;2.07;;
1699;SDS011;847;48.058;7.810;2023-04-03T21:36:03;3.13;;;2.10;;
1699;SDS011;847;48.058;7.810;2023-04-03T21:38:31;3.27;;;2.30;;
1699;SDS011;847;48.058;7.810;2023-04-03T21:41:00;2.70;;;2.40;;
1699;SDS011;847;48.058;7.810;2023-04-03T21:43:27;2.60;;;2.40;;
1699;SDS011;847;48.058;7.810;2023-04-03T21:45:54;3.17;;;2.67;;
1699;SDS011;847;48.058;7.810;2023-04-03T21:48:21;4.47;;;3.77;;
1699;SDS011;847;48.058;7.810;2023-04-03T21:50:50;3.17;;;2.40;;
1699;SDS011;847;48.058;7.810;2023-04-03T21:53:18;3.90;;;2.57;;
1699;SDS011;847;48.058;7.810;2023-04-03T21:55:52;3.20;;;2.30;;
1699;SDS011;847;48.058;7.810;2023-04-03T21:58:19;4.37;;;3.30;;
1699;SDS011;847;48.058;7.810;2023-04-03T22:00:46;3.20;;;2.40;;
1699;SDS011;847;48.058;7.810;2023-04-03T22:03:17;3.00;;;2.70;;
1699;SDS011;847;48.058;7.810;2023-04-03T22:05:45;4.97;;;2.70;;
1699;SDS011;847;48.058;7.810;2023-04-03T22:08:13;2.40;;;2.20;;
1699;SDS011;847;48.058;7.810;2023-04-03T22:10:41;3.60;;;2.67;;
1699;SDS011;847;48.058;7.810;2023-04-03T22:13:09;2.87;;;2.40;;
1699;SDS011;847;48.058;7.810;2023-04-03T22:15:35;6.27;;;2.80;;
1699;SDS011;847;48.058;7.810;2023-04-03T22:18:06;2.93;;;1.90;;
1699;SDS011;847;48.058;7.810;2023-04-03T22:20:34;6.80;;;2.90;;
1699;SDS011;847;48.058;7.810;2023-04-03T22:23:01;3.83;;;2.93;;
1699;SDS011;847;48.058;7.810;2023-04-03T22:25:29;3.10;;;2.27;;
1699;SDS011;847;48.058;7.810;2023-04-03T22:27:56;3.70;;;2.10;;
1699;SDS011;847;48.058;7.810;2023-04-03T22:30:22;2.60;;;2.30;;
1699;SDS011;847;48.058;7.810;2023-04-03T22:32:49;3.87;;;2.70;;
1699;SDS011;847;48.058;7.810;2023-04-03T22:35:16;2.10;;;2.00;;
1699;SDS011;847;48.058;7.810;2023-04-03T22:37:43;3.77;;;2.60;;
1699;SDS011;847;48.058;7.810;2023-04-03T22:40:11;3.43;;;2.20;;
1699;SDS011;847;48.058;7.810;2023-04-03T22:42:40;3.30;;;2.90;;
1699;SDS011;847;48.058;7.810;2023-04-03T22:45:07;2.67;;;2.43;;
1699;SDS011;847;48.058;7.810;2023-04-03T22:47:34;3.53;;;2.93;;
1699;SDS011;847;48.058;7.810;2023-04-03T22:50:02;2.20;;;2.00;;
1699;SDS011;847;48.058;7.810;2023-04-03T22:52:29;3.20;;;2.90;;
1699;SDS011;847;48.058;7.810;2023-04-03T22:54:55;3.50;;;2.90;;
1699;SDS011;847;48.058;7.810;2023-04-03T22:57:22;3.83;;;3.00;;
1699;SDS011;847;48.058;7.810;2023-04-03T22:59:50;4.83;;;2.70;;
1699;SDS011;847;48.058;7.810;2023-04-03T23:02:17;3.23;;;2.47;;
1699;SDS011;847;48.058;7.810;2023-04-03T23:04:44;3.20;;;2.90;;
1699;SDS011;847;48.058;7.810;2023-04-03T23:07:11;3.50;;;2.93;;
1699;SDS011;847;48.058;7.810;2023-04-03T23:09:38;2.70;;;2.50;;
1699;SDS011;847;48.058;7.810;2023-04-03T23:12:05;4.80;;;3.00;;
1699;SDS011;847;48.058;7.810;2023-04-03T23:14:33;2.43;;;2.23;;
1699;SDS011;847;48.058;7.810;2023-04-03T23:17:02;3.70;;;2.50;;
1699;SDS011;847;48.058;7.810;2023-04-03T23:19:30;6.13;;;2.83;;
1699;SDS011;847;48.058;7.810;2023-04-03T23:21:59;3.37;;;2.73;;
1699;SDS011;847;48.058;7.810;2023-04-03T23:24:25;6.10;;;2.83;;
1699;SDS011;847;48.058;7.810;2023-04-03T23:26:52;3.30;;;1.93;;
1699;SDS011;847;48.058;7.810;2023-04-03T23:29:19;3.23;;;2.37;;
1699;SDS011;847;48.058;7.810;2023-04-03T23:31:46;3.13;;;2.83;;
1699;SDS011;847;48.058;7.810;2023-04-03T23:34:14;2.80;;;2.20;;
1699;SDS011;847;48.058;7.810;2023-04-03T23:36:41;5.57;;;2.60;;
1699;SDS011;847;48.058;7.810;2023-04-03T23:39:08;3.10;;;2.23;;
1699;SDS011;847;48.058;7.810;2023-04-03T23:41:35;3.03;;;2.70;;
1699;SDS011;847;48.058;7.810;2023-04-03T23:44:02;3.10;;;2.43;;
1699;SDS011;847;48.058;7.810;2023-04-03T23:46:28;3.50;;;2.57;;
1699;SDS011;847;48.058;7.810;2023-04-03T23:48:55;2.33;;;2.10;;
1699;SDS011;847;48.058;7.810;2023-04-03T23:51:23;3.37;;;2.73;;
1699;SDS011;847;48.058;7.810;2023-04-03T23:53:50;2.10;;;1.90;;
1699;SDS011;847;48.058;7.810;2023-04-03T23:56:17;2.60;;;2.20;;
1699;SDS011;847;48.058;7.810;2023-04-03T23:58:44;4.73;;;2.57;;
